sensor_id;sensor_type;location;lat;lon;timestamp;P1;durP1;ratioP1;P2;durP2;ratioP2
27375;SDS011;14844;51.302;6.354;2022-09-12T00:00:06;25.38;;;17.30;;
27375;SDS011;14844;51.302;6.354;2022-09-12T00:02:32;22.70;;;17.00;;
27375;SDS011;14844;51.302;6.354;2022-09-12T00:04:58;37.50;;;19.85;;
27375;SDS011;14844;51.302;6.354;2022-09-12T00:07:24;30.55;;;18.40;;
27375;SDS011;14844;51.302;6.354;2022-09-12T00:09:49;23.38;;;15.82;;
27375;SDS011;14844;51.302;6.354;2022-09-12T00:12:15;26.80;;;16.60;;
27375;SDS011;14844;51.302;6.354;2022-09-12T00:14:41;21.65;;;16.08;;
27375;SDS011;14844;51.302;6.354;2022-09-12T00:17:06;29.70;;;17.88;;
27375;SDS011;14844;51.302;6.354;2022-09-12T00:19:32;30.45;;;19.00;;
27375;SDS011;14844;51.302;6.354;2022-09-12T00:21:58;26.30;;;17.90;;
27375;SDS011;14844;51.302;6.354;2022-09-12T00:24:23;25.58;;;18.13;;
27375;SDS011;14844;51.302;6.354;2022-09-12T00:26:49;46.80;;;22.42;;
27375;SDS011;14844;51.302;6.354;2022-09-12T00:29:15;45.33;;;23.00;;
27375;SDS011;14844;51.302;6.354;2022-09-12T00:31:43;47.40;;;22.25;;
27375;SDS011;14844;51.302;6.354;2022-09-12T00:34:09;34.95;;;20.95;;
27375;SDS011;14844;51.302;6.354;2022-09-12T00:36:35;29.58;;;18.70;;
27375;SDS011;14844;51.302;6.354;2022-09-12T00:39:02;38.72;;;20.15;;
27375;SDS011;14844;51.302;6.354;2022-09-12T00:41:35;34.92;;;19.20;;
27375;SDS011;14844;51.302;6.354;2022-09-12T00:44:41;29.40;;;17.75;;
27375;SDS011;14844;51.302;6.354;2022-09-12T00:46:52;35.33;;;18.30;;
27375;SDS011;14844;51.302;6.354;2022-09-12T00:49:28;44.38;;;20.35;;
27375;SDS011;14844;51.302;6.354;2022-09-12T00:52:10;30.27;;;18.33;;
27375;SDS011;14844;51.302;6.354;2022-09-12T00:57:20;38.72;;;20.08;;
27375;SDS011;14844;51.302;6.354;2022-09-12T00:59:50;45.17;;;21.48;;
27375;SDS011;14844;51.302;6.354;2022-09-12T01:02:32;43.13;;;20.40;;
27375;SDS011;14844;51.302;6.354;2022-09-12T01:04:58;41.70;;;20.30;;
27375;SDS011;14844;51.302;6.354;2022-09-12T01:07:24;41.70;;;21.58;;
27375;SDS011;14844;51.302;6.354;2022-09-12T01:09:50;39.22;;;20.00;;
27375;SDS011;14844;51.302;6.354;2022-09-12T01:12:16;42.67;;;20.23;;
27375;SDS011;14844;51.302;6.354;2022-09-12T01:14:42;34.20;;;18.15;;
27375;SDS011;14844;51.302;6.354;2022-09-12T01:17:10;30.45;;;18.65;;
27375;SDS011;14844;51.302;6.354;2022-09-12T01:25:30;24.70;;;16.02;;
27375;SDS011;14844;51.302;6.354;2022-09-12T01:31:07;53.85;;;23.55;;
27375;SDS011;14844;51.302;6.354;2022-09-12T01:36:33;48.10;;;23.40;;
27375;SDS011;14844;51.302;6.354;2022-09-12T01:39:16;60.70;;;24.90;;
27375;SDS011;14844;51.302;6.354;2022-09-12T01:44:50;39.90;;;22.80;;
27375;SDS011;14844;51.302;6.354;2022-09-12T01:47:31;55.15;;;24.40;;
27375;SDS011;14844;51.302;6.354;2022-09-12T01:52:33;40.40;;;21.98;;
27375;SDS011;14844;51.302;6.354;2022-09-12T01:55:06;69.28;;;28.27;;
27375;SDS011;14844;51.302;6.354;2022-09-12T01:57:56;61.08;;;29.50;;
27375;SDS011;14844;51.302;6.354;2022-09-12T02:00:32;65.82;;;30.63;;
27375;SDS011;14844;51.302;6.354;2022-09-12T02:03:09;80.70;;;32.30;;
27375;SDS011;14844;51.302;6.354;2022-09-12T02:08:45;57.08;;;28.70;;
27375;SDS011;14844;51.302;6.354;2022-09-12T02:11:15;71.20;;;32.85;;
27375;SDS011;14844;51.302;6.354;2022-09-12T02:13:42;104.00;;;37.45;;
27375;SDS011;14844;51.302;6.354;2022-09-12T02:16:16;70.97;;;33.08;;
27375;SDS011;14844;51.302;6.354;2022-09-12T02:18:44;71.63;;;34.73;;
27375;SDS011;14844;51.302;6.354;2022-09-12T02:21:16;103.72;;;41.00;;
27375;SDS011;14844;51.302;6.354;2022-09-12T02:23:45;79.15;;;35.58;;
27375;SDS011;14844;51.302;6.354;2022-09-12T02:26:28;71.60;;;35.53;;
27375;SDS011;14844;51.302;6.354;2022-09-12T02:28:57;77.82;;;35.30;;
27375;SDS011;14844;51.302;6.354;2022-09-12T02:31:27;75.57;;;33.30;;
27375;SDS011;14844;51.302;6.354;2022-09-12T02:34:07;79.05;;;34.90;;
27375;SDS011;14844;51.302;6.354;2022-09-12T02:36:48;58.08;;;30.58;;
27375;SDS011;14844;51.302;6.354;2022-09-12T02:39:34;71.30;;;33.47;;
27375;SDS011;14844;51.302;6.354;2022-09-12T02:41:59;65.78;;;31.20;;
27375;SDS011;14844;51.302;6.354;2022-09-12T02:44:27;58.45;;;29.05;;
27375;SDS011;14844;51.302;6.354;2022-09-12T02:46:55;74.28;;;34.28;;
27375;SDS011;14844;51.302;6.354;2022-09-12T02:49:25;58.20;;;31.90;;
27375;SDS011;14844;51.302;6.354;2022-09-12T02:51:51;74.85;;;35.17;;
27375;SDS011;14844;51.302;6.354;2022-09-12T02:54:17;71.28;;;32.55;;
27375;SDS011;14844;51.302;6.354;2022-09-12T02:56:44;70.93;;;33.92;;
27375;SDS011;14844;51.302;6.354;2022-09-12T02:59:11;63.08;;;31.70;;
27375;SDS011;14844;51.302;6.354;2022-09-12T03:04:52;58.10;;;30.38;;
27375;SDS011;14844;51.302;6.354;2022-09-12T03:07:27;64.45;;;29.17;;
27375;SDS011;14844;51.302;6.354;2022-09-12T03:12:45;63.50;;;30.27;;
27375;SDS011;14844;51.302;6.354;2022-09-12T03:18:51;65.05;;;30.33;;
27375;SDS011;14844;51.302;6.354;2022-09-12T03:26:46;92.07;;;36.38;;
27375;SDS011;14844;51.302;6.354;2022-09-12T03:31:54;59.92;;;30.00;;
27375;SDS011;14844;51.302;6.354;2022-09-12T03:34:22;58.28;;;29.30;;
27375;SDS011;14844;51.302;6.354;2022-09-12T03:36:49;107.18;;;38.30;;
27375;SDS011;14844;51.302;6.354;2022-09-12T03:39:15;100.25;;;40.38;;
27375;SDS011;14844;51.302;6.354;2022-09-12T03:41:41;57.42;;;29.63;;
27375;SDS011;14844;51.302;6.354;2022-09-12T03:44:07;104.03;;;40.15;;
27375;SDS011;14844;51.302;6.354;2022-09-12T03:46:33;100.65;;;39.75;;
27375;SDS011;14844;51.302;6.354;2022-09-12T03:48:59;82.57;;;36.78;;
27375;SDS011;14844;51.302;6.354;2022-09-12T03:51:24;104.30;;;38.88;;
27375;SDS011;14844;51.302;6.354;2022-09-12T03:53:50;82.82;;;34.85;;
27375;SDS011;14844;51.302;6.354;2022-09-12T03:56:15;79.47;;;35.30;;
27375;SDS011;14844;51.302;6.354;2022-09-12T03:58:42;103.38;;;38.53;;
27375;SDS011;14844;51.302;6.354;2022-09-12T04:01:15;103.60;;;39.55;;
27375;SDS011;14844;51.302;6.354;2022-09-12T04:03:42;109.70;;;42.00;;
27375;SDS011;14844;51.302;6.354;2022-09-12T04:06:10;109.47;;;39.95;;
27375;SDS011;14844;51.302;6.354;2022-09-12T04:08:38;105.85;;;40.70;;
27375;SDS011;14844;51.302;6.354;2022-09-12T04:11:05;146.68;;;44.40;;
27375;SDS011;14844;51.302;6.354;2022-09-12T04:13:33;142.63;;;43.58;;
27375;SDS011;14844;51.302;6.354;2022-09-12T04:15:59;117.55;;;41.88;;
27375;SDS011;14844;51.302;6.354;2022-09-12T04:18:25;120.72;;;42.85;;
27375;SDS011;14844;51.302;6.354;2022-09-12T04:20:51;151.43;;;49.50;;
27375;SDS011;14844;51.302;6.354;2022-09-12T04:23:17;209.25;;;58.22;;
27375;SDS011;14844;51.302;6.354;2022-09-12T04:25:43;181.27;;;55.10;;
27375;SDS011;14844;51.302;6.354;2022-09-12T04:28:08;219.10;;;61.05;;
27375;SDS011;14844;51.302;6.354;2022-09-12T04:30:34;164.13;;;55.53;;
27375;SDS011;14844;51.302;6.354;2022-09-12T04:32:59;201.35;;;59.55;;
27375;SDS011;14844;51.302;6.354;2022-09-12T04:35:25;187.57;;;55.78;;
27375;SDS011;14844;51.302;6.354;2022-09-12T04:37:51;212.93;;;61.10;;
27375;SDS011;14844;51.302;6.354;2022-09-12T04:40:17;236.98;;;59.25;;
27375;SDS011;14844;51.302;6.354;2022-09-12T04:42:43;246.60;;;62.20;;
27375;SDS011;14844;51.302;6.354;2022-09-12T04:45:09;239.68;;;63.22;;
27375;SDS011;14844;51.302;6.354;2022-09-12T04:47:35;183.38;;;56.95;;
27375;SDS011;14844;51.302;6.354;2022-09-12T04:50:00;237.85;;;64.88;;
27375;SDS011;14844;51.302;6.354;2022-09-12T04:52:26;243.30;;;65.60;;
27375;SDS011;14844;51.302;6.354;2022-09-12T04:54:52;183.45;;;58.08;;
27375;SDS011;14844;51.302;6.354;2022-09-12T04:57:17;205.90;;;61.75;;
27375;SDS011;14844;51.302;6.354;2022-09-12T04:59:43;190.68;;;60.53;;
27375;SDS011;14844;51.302;6.354;2022-09-12T05:02:09;230.52;;;66.05;;
27375;SDS011;14844;51.302;6.354;2022-09-12T05:04:34;217.80;;;63.50;;
27375;SDS011;14844;51.302;6.354;2022-09-12T05:07:00;221.25;;;64.18;;
27375;SDS011;14844;51.302;6.354;2022-09-12T05:09:26;167.70;;;59.83;;
27375;SDS011;14844;51.302;6.354;2022-09-12T05:11:51;212.40;;;64.03;;
27375;SDS011;14844;51.302;6.354;2022-09-12T05:14:17;198.57;;;64.32;;
27375;SDS011;14844;51.302;6.354;2022-09-12T05:16:43;196.85;;;62.17;;
27375;SDS011;14844;51.302;6.354;2022-09-12T05:19:09;234.82;;;67.72;;
27375;SDS011;14844;51.302;6.354;2022-09-12T05:21:36;146.13;;;53.88;;
27375;SDS011;14844;51.302;6.354;2022-09-12T05:24:02;236.23;;;66.93;;
27375;SDS011;14844;51.302;6.354;2022-09-12T05:26:30;261.27;;;71.25;;
27375;SDS011;14844;51.302;6.354;2022-09-12T05:28:55;190.90;;;63.28;;
27375;SDS011;14844;51.302;6.354;2022-09-12T05:31:25;254.30;;;68.22;;
27375;SDS011;14844;51.302;6.354;2022-09-12T05:33:52;179.80;;;60.85;;
27375;SDS011;14844;51.302;6.354;2022-09-12T05:36:22;188.52;;;62.85;;
27375;SDS011;14844;51.302;6.354;2022-09-12T05:38:50;236.63;;;67.95;;
27375;SDS011;14844;51.302;6.354;2022-09-12T05:41:16;215.15;;;63.42;;
27375;SDS011;14844;51.302;6.354;2022-09-12T05:43:49;181.63;;;59.35;;
27375;SDS011;14844;51.302;6.354;2022-09-12T05:46:22;251.32;;;67.88;;
27375;SDS011;14844;51.302;6.354;2022-09-12T05:48:50;166.85;;;58.38;;
27375;SDS011;14844;51.302;6.354;2022-09-12T05:53:44;155.75;;;57.38;;
27375;SDS011;14844;51.302;6.354;2022-09-12T05:56:13;247.27;;;69.25;;
27375;SDS011;14844;51.302;6.354;2022-09-12T05:58:42;178.23;;;61.38;;
27375;SDS011;14844;51.302;6.354;2022-09-12T06:01:10;167.38;;;60.53;;
27375;SDS011;14844;51.302;6.354;2022-09-12T06:03:40;205.23;;;64.32;;
27375;SDS011;14844;51.302;6.354;2022-09-12T06:06:07;147.23;;;56.85;;
27375;SDS011;14844;51.302;6.354;2022-09-12T06:08:33;128.55;;;53.78;;
27375;SDS011;14844;51.302;6.354;2022-09-12T06:11:04;124.20;;;54.03;;
27375;SDS011;14844;51.302;6.354;2022-09-12T06:13:34;119.68;;;52.05;;
27375;SDS011;14844;51.302;6.354;2022-09-12T06:16:20;103.43;;;48.88;;
27375;SDS011;14844;51.302;6.354;2022-09-12T06:18:58;104.50;;;48.78;;
27375;SDS011;14844;51.302;6.354;2022-09-12T06:21:25;93.38;;;45.67;;
27375;SDS011;14844;51.302;6.354;2022-09-12T06:23:52;87.63;;;44.53;;
27375;SDS011;14844;51.302;6.354;2022-09-12T06:26:18;82.40;;;43.13;;
27375;SDS011;14844;51.302;6.354;2022-09-12T06:28:47;82.38;;;42.00;;
27375;SDS011;14844;51.302;6.354;2022-09-12T06:31:14;68.85;;;38.72;;
27375;SDS011;14844;51.302;6.354;2022-09-12T06:33:43;70.40;;;39.67;;
27375;SDS011;14844;51.302;6.354;2022-09-12T06:36:14;64.60;;;36.75;;
27375;SDS011;14844;51.302;6.354;2022-09-12T06:38:41;59.83;;;35.90;;
27375;SDS011;14844;51.302;6.354;2022-09-12T06:41:08;53.22;;;33.17;;
27375;SDS011;14844;51.302;6.354;2022-09-12T06:43:36;55.38;;;33.72;;
27375;SDS011;14844;51.302;6.354;2022-09-12T06:46:02;53.97;;;31.70;;
27375;SDS011;14844;51.302;6.354;2022-09-12T06:48:28;53.92;;;32.40;;
27375;SDS011;14844;51.302;6.354;2022-09-12T06:50:57;48.90;;;30.45;;
27375;SDS011;14844;51.302;6.354;2022-09-12T06:53:28;53.92;;;31.50;;
27375;SDS011;14844;51.302;6.354;2022-09-12T06:56:11;46.47;;;29.42;;
27375;SDS011;14844;51.302;6.354;2022-09-12T06:58:37;48.47;;;29.75;;
27375;SDS011;14844;51.302;6.354;2022-09-12T07:01:13;42.63;;;28.17;;
27375;SDS011;14844;51.302;6.354;2022-09-12T07:03:51;43.03;;;27.75;;
27375;SDS011;14844;51.302;6.354;2022-09-12T07:06:22;43.03;;;28.52;;
27375;SDS011;14844;51.302;6.354;2022-09-12T07:08:49;44.70;;;27.98;;
27375;SDS011;14844;51.302;6.354;2022-09-12T07:11:18;42.47;;;26.88;;
27375;SDS011;14844;51.302;6.354;2022-09-12T07:13:50;29.77;;;20.33;;
27375;SDS011;14844;51.302;6.354;2022-09-12T07:16:17;40.60;;;26.17;;
27375;SDS011;14844;51.302;6.354;2022-09-12T07:18:43;40.95;;;26.88;;
27375;SDS011;14844;51.302;6.354;2022-09-12T07:21:11;39.65;;;25.27;;
27375;SDS011;14844;51.302;6.354;2022-09-12T07:23:38;38.10;;;24.95;;
27375;SDS011;14844;51.302;6.354;2022-09-12T07:26:04;37.70;;;26.35;;
27375;SDS011;14844;51.302;6.354;2022-09-12T07:28:31;38.60;;;24.92;;
27375;SDS011;14844;51.302;6.354;2022-09-12T07:31:00;41.47;;;25.05;;
27375;SDS011;14844;51.302;6.354;2022-09-12T07:33:31;32.80;;;25.00;;
27375;SDS011;14844;51.302;6.354;2022-09-12T07:36:00;38.42;;;24.83;;
27375;SDS011;14844;51.302;6.354;2022-09-12T07:38:30;35.50;;;24.23;;
27375;SDS011;14844;51.302;6.354;2022-09-12T07:40:56;37.58;;;25.30;;
27375;SDS011;14844;51.302;6.354;2022-09-12T07:43:22;39.03;;;25.20;;
27375;SDS011;14844;51.302;6.354;2022-09-12T07:45:53;38.60;;;25.90;;
27375;SDS011;14844;51.302;6.354;2022-09-12T07:48:19;36.03;;;23.92;;
27375;SDS011;14844;51.302;6.354;2022-09-12T07:50:45;34.88;;;24.55;;
27375;SDS011;14844;51.302;6.354;2022-09-12T07:53:10;35.72;;;24.20;;
27375;SDS011;14844;51.302;6.354;2022-09-12T07:55:36;40.20;;;24.25;;
27375;SDS011;14844;51.302;6.354;2022-09-12T07:58:02;36.22;;;23.23;;
27375;SDS011;14844;51.302;6.354;2022-09-12T08:00:28;31.45;;;23.05;;
27375;SDS011;14844;51.302;6.354;2022-09-12T08:02:59;33.08;;;23.23;;
27375;SDS011;14844;51.302;6.354;2022-09-12T08:05:26;33.25;;;22.77;;
27375;SDS011;14844;51.302;6.354;2022-09-12T08:07:52;31.58;;;22.83;;
27375;SDS011;14844;51.302;6.354;2022-09-12T08:10:18;34.22;;;22.70;;
27375;SDS011;14844;51.302;6.354;2022-09-12T08:12:43;35.90;;;21.90;;
27375;SDS011;14844;51.302;6.354;2022-09-12T08:15:09;34.45;;;22.40;;
27375;SDS011;14844;51.302;6.354;2022-09-12T08:17:34;32.05;;;20.85;;
27375;SDS011;14844;51.302;6.354;2022-09-12T08:20:00;28.70;;;21.23;;
27375;SDS011;14844;51.302;6.354;2022-09-12T08:22:26;31.52;;;20.63;;
27375;SDS011;14844;51.302;6.354;2022-09-12T08:24:54;29.70;;;20.70;;
27375;SDS011;14844;51.302;6.354;2022-09-12T08:27:19;31.25;;;20.73;;
27375;SDS011;14844;51.302;6.354;2022-09-12T08:29:45;27.52;;;19.45;;
27375;SDS011;14844;51.302;6.354;2022-09-12T08:32:11;27.52;;;19.92;;
27375;SDS011;14844;51.302;6.354;2022-09-12T08:34:36;31.27;;;20.73;;
27375;SDS011;14844;51.302;6.354;2022-09-12T08:37:02;31.17;;;21.55;;
27375;SDS011;14844;51.302;6.354;2022-09-12T08:39:28;28.80;;;20.55;;
27375;SDS011;14844;51.302;6.354;2022-09-12T08:41:57;28.38;;;20.88;;
27375;SDS011;14844;51.302;6.354;2022-09-12T08:47:21;31.48;;;20.25;;
27375;SDS011;14844;51.302;6.354;2022-09-12T08:58:17;27.17;;;18.67;;
27375;SDS011;14844;51.302;6.354;2022-09-12T09:01:00;25.33;;;19.23;;
27375;SDS011;14844;51.302;6.354;2022-09-12T09:03:30;28.80;;;18.33;;
27375;SDS011;14844;51.302;6.354;2022-09-12T09:17:33;26.50;;;18.88;;
27375;SDS011;14844;51.302;6.354;2022-09-12T09:25:34;25.25;;;17.17;;
27375;SDS011;14844;51.302;6.354;2022-09-12T09:30:50;21.85;;;15.43;;
27375;SDS011;14844;51.302;6.354;2022-09-12T09:33:19;24.80;;;16.33;;
27375;SDS011;14844;51.302;6.354;2022-09-12T09:35:52;26.15;;;17.92;;
27375;SDS011;14844;51.302;6.354;2022-09-12T09:38:34;24.60;;;16.65;;
27375;SDS011;14844;51.302;6.354;2022-09-12T09:41:39;26.13;;;16.98;;
27375;SDS011;14844;51.302;6.354;2022-09-12T09:44:15;25.77;;;15.27;;
27375;SDS011;14844;51.302;6.354;2022-09-12T09:46:41;24.38;;;16.95;;
27375;SDS011;14844;51.302;6.354;2022-09-12T09:49:08;23.75;;;15.30;;
27375;SDS011;14844;51.302;6.354;2022-09-12T09:51:38;21.23;;;14.82;;
27375;SDS011;14844;51.302;6.354;2022-09-12T09:59:08;17.85;;;13.88;;
27375;SDS011;14844;51.302;6.354;2022-09-12T10:01:58;16.67;;;11.48;;
27375;SDS011;14844;51.302;6.354;2022-09-12T10:04:28;16.23;;;9.90;;
27375;SDS011;14844;51.302;6.354;2022-09-12T10:06:57;11.77;;;8.45;;
27375;SDS011;14844;51.302;6.354;2022-09-12T10:09:34;9.68;;;6.38;;
27375;SDS011;14844;51.302;6.354;2022-09-12T10:12:01;7.78;;;5.72;;
27375;SDS011;14844;51.302;6.354;2022-09-12T10:14:55;10.00;;;5.95;;
27375;SDS011;14844;51.302;6.354;2022-09-12T10:17:27;8.45;;;5.70;;
27375;SDS011;14844;51.302;6.354;2022-09-12T10:19:55;6.03;;;4.60;;
27375;SDS011;14844;51.302;6.354;2022-09-12T10:22:22;10.50;;;5.45;;
27375;SDS011;14844;51.302;6.354;2022-09-12T10:24:52;8.10;;;4.75;;
27375;SDS011;14844;51.302;6.354;2022-09-12T10:27:23;8.80;;;4.35;;
27375;SDS011;14844;51.302;6.354;2022-09-12T10:30:14;6.22;;;4.40;;
27375;SDS011;14844;51.302;6.354;2022-09-12T10:32:45;7.05;;;5.00;;
27375;SDS011;14844;51.302;6.354;2022-09-12T10:35:23;6.07;;;4.00;;
27375;SDS011;14844;51.302;6.354;2022-09-12T10:38:05;6.32;;;3.33;;
27375;SDS011;14844;51.302;6.354;2022-09-12T10:45:49;5.32;;;3.97;;
27375;SDS011;14844;51.302;6.354;2022-09-12T10:51:00;7.90;;;3.60;;
27375;SDS011;14844;51.302;6.354;2022-09-12T11:01:20;5.43;;;2.80;;
27375;SDS011;14844;51.302;6.354;2022-09-12T11:04:19;7.82;;;2.63;;
27375;SDS011;14844;51.302;6.354;2022-09-12T11:07:20;5.03;;;2.70;;
27375;SDS011;14844;51.302;6.354;2022-09-12T11:10:00;5.85;;;2.65;;
27375;SDS011;14844;51.302;6.354;2022-09-12T11:12:50;5.53;;;3.10;;
27375;SDS011;14844;51.302;6.354;2022-09-12T11:18:09;6.53;;;2.42;;
27375;SDS011;14844;51.302;6.354;2022-09-12T11:23:44;3.60;;;2.33;;
27375;SDS011;14844;51.302;6.354;2022-09-12T11:29:13;4.70;;;1.73;;
27375;SDS011;14844;51.302;6.354;2022-09-12T11:37:57;6.03;;;2.30;;
27375;SDS011;14844;51.302;6.354;2022-09-12T11:40:28;2.78;;;1.88;;
27375;SDS011;14844;51.302;6.354;2022-09-12T11:43:21;3.08;;;2.10;;
27375;SDS011;14844;51.302;6.354;2022-09-12T11:45:58;4.85;;;2.30;;
27375;SDS011;14844;51.302;6.354;2022-09-12T11:51:33;3.65;;;2.40;;
27375;SDS011;14844;51.302;6.354;2022-09-12T11:56:57;5.90;;;2.75;;
27375;SDS011;14844;51.302;6.354;2022-09-12T11:59:47;4.10;;;2.40;;
27375;SDS011;14844;51.302;6.354;2022-09-12T12:02:32;4.68;;;2.20;;
27375;SDS011;14844;51.302;6.354;2022-09-12T12:07:51;3.78;;;1.90;;
27375;SDS011;14844;51.302;6.354;2022-09-12T12:10:26;6.35;;;2.00;;
27375;SDS011;14844;51.302;6.354;2022-09-12T12:13:05;7.00;;;2.42;;
27375;SDS011;14844;51.302;6.354;2022-09-12T12:15:46;3.72;;;1.95;;
27375;SDS011;14844;51.302;6.354;2022-09-12T12:18:16;3.95;;;2.10;;
27375;SDS011;14844;51.302;6.354;2022-09-12T12:20:44;4.95;;;2.08;;
27375;SDS011;14844;51.302;6.354;2022-09-12T12:23:29;2.70;;;1.55;;
27375;SDS011;14844;51.302;6.354;2022-09-12T12:26:01;2.85;;;1.50;;
27375;SDS011;14844;51.302;6.354;2022-09-12T12:29:01;2.67;;;1.60;;
27375;SDS011;14844;51.302;6.354;2022-09-12T12:31:21;2.55;;;1.42;;
27375;SDS011;14844;51.302;6.354;2022-09-12T12:36:33;6.38;;;1.50;;
27375;SDS011;14844;51.302;6.354;2022-09-12T12:41:57;3.60;;;1.40;;
27375;SDS011;14844;51.302;6.354;2022-09-12T12:49:55;3.28;;;1.60;;
27375;SDS011;14844;51.302;6.354;2022-09-12T12:52:24;2.92;;;1.40;;
27375;SDS011;14844;51.302;6.354;2022-09-12T12:54:55;2.70;;;1.52;;
27375;SDS011;14844;51.302;6.354;2022-09-12T12:57:26;3.22;;;1.52;;
27375;SDS011;14844;51.302;6.354;2022-09-12T12:59:54;4.13;;;1.52;;
27375;SDS011;14844;51.302;6.354;2022-09-12T13:02:26;2.85;;;1.80;;
27375;SDS011;14844;51.302;6.354;2022-09-12T13:04:52;3.50;;;1.70;;
27375;SDS011;14844;51.302;6.354;2022-09-12T13:07:22;3.60;;;1.60;;
27375;SDS011;14844;51.302;6.354;2022-09-12T13:09:53;4.60;;;1.63;;
27375;SDS011;14844;51.302;6.354;2022-09-12T13:12:25;3.08;;;1.70;;
27375;SDS011;14844;51.302;6.354;2022-09-12T13:18:06;3.28;;;1.73;;
27375;SDS011;14844;51.302;6.354;2022-09-12T13:20:47;2.80;;;1.45;;
27375;SDS011;14844;51.302;6.354;2022-09-12T13:23:23;5.65;;;1.83;;
27375;SDS011;14844;51.302;6.354;2022-09-12T13:25:53;4.80;;;1.88;;
27375;SDS011;14844;51.302;6.354;2022-09-12T13:28:20;3.15;;;1.70;;
27375;SDS011;14844;51.302;6.354;2022-09-12T13:39:04;5.60;;;1.80;;
27375;SDS011;14844;51.302;6.354;2022-09-12T13:41:54;3.25;;;2.10;;
27375;SDS011;14844;51.302;6.354;2022-09-12T13:44:28;5.25;;;1.83;;
27375;SDS011;14844;51.302;6.354;2022-09-12T13:46:59;3.90;;;1.95;;
27375;SDS011;14844;51.302;6.354;2022-09-12T13:49:34;4.82;;;2.08;;
27375;SDS011;14844;51.302;6.354;2022-09-12T13:52:03;2.65;;;1.88;;
27375;SDS011;14844;51.302;6.354;2022-09-12T13:54:32;4.38;;;2.00;;
27375;SDS011;14844;51.302;6.354;2022-09-12T13:57:02;3.53;;;1.92;;
27375;SDS011;14844;51.302;6.354;2022-09-12T13:59:36;4.90;;;2.22;;
27375;SDS011;14844;51.302;6.354;2022-09-12T14:02:19;4.07;;;1.73;;
27375;SDS011;14844;51.302;6.354;2022-09-12T14:04:47;3.13;;;1.70;;
27375;SDS011;14844;51.302;6.354;2022-09-12T14:07:39;3.42;;;2.03;;
27375;SDS011;14844;51.302;6.354;2022-09-12T14:10:23;4.25;;;1.80;;
27375;SDS011;14844;51.302;6.354;2022-09-12T14:12:50;3.05;;;1.83;;
27375;SDS011;14844;51.302;6.354;2022-09-12T14:15:24;4.03;;;1.85;;
27375;SDS011;14844;51.302;6.354;2022-09-12T14:17:53;7.32;;;1.88;;
27375;SDS011;14844;51.302;6.354;2022-09-12T14:20:25;3.08;;;1.83;;
27375;SDS011;14844;51.302;6.354;2022-09-12T14:22:55;6.10;;;1.83;;
27375;SDS011;14844;51.302;6.354;2022-09-12T14:25:57;3.00;;;2.13;;
27375;SDS011;14844;51.302;6.354;2022-09-12T14:28:26;7.20;;;1.80;;
27375;SDS011;14844;51.302;6.354;2022-09-12T14:33:22;3.95;;;1.45;;
27375;SDS011;14844;51.302;6.354;2022-09-12T14:35:49;3.42;;;1.50;;
27375;SDS011;14844;51.302;6.354;2022-09-12T14:38:51;4.00;;;1.58;;
27375;SDS011;14844;51.302;6.354;2022-09-12T14:41:10;4.10;;;1.70;;
27375;SDS011;14844;51.302;6.354;2022-09-12T14:43:40;3.42;;;1.45;;
27375;SDS011;14844;51.302;6.354;2022-09-12T14:46:16;6.32;;;1.70;;
27375;SDS011;14844;51.302;6.354;2022-09-12T14:48:50;3.92;;;1.70;;
27375;SDS011;14844;51.302;6.354;2022-09-12T14:51:38;3.05;;;1.52;;
27375;SDS011;14844;51.302;6.354;2022-09-12T14:56:55;13.15;;;1.80;;
27375;SDS011;14844;51.302;6.354;2022-09-12T14:59:41;2.97;;;1.33;;
27375;SDS011;14844;51.302;6.354;2022-09-12T15:02:25;11.82;;;1.75;;
27375;SDS011;14844;51.302;6.354;2022-09-12T15:04:52;4.50;;;1.90;;
27375;SDS011;14844;51.302;6.354;2022-09-12T15:07:30;5.43;;;1.50;;
27375;SDS011;14844;51.302;6.354;2022-09-12T15:09:59;2.78;;;1.42;;
27375;SDS011;14844;51.302;6.354;2022-09-12T15:14:57;4.45;;;1.48;;
27375;SDS011;14844;51.302;6.354;2022-09-12T15:17:28;3.88;;;1.27;;
27375;SDS011;14844;51.302;6.354;2022-09-12T15:19:53;3.83;;;1.45;;
27375;SDS011;14844;51.302;6.354;2022-09-12T15:22:19;4.63;;;1.67;;
27375;SDS011;14844;51.302;6.354;2022-09-12T15:24:48;2.75;;;1.50;;
27375;SDS011;14844;51.302;6.354;2022-09-12T15:27:14;2.95;;;1.50;;
27375;SDS011;14844;51.302;6.354;2022-09-12T15:29:39;3.42;;;1.40;;
27375;SDS011;14844;51.302;6.354;2022-09-12T15:32:05;4.60;;;1.40;;
27375;SDS011;14844;51.302;6.354;2022-09-12T15:34:31;5.63;;;1.42;;
27375;SDS011;14844;51.302;6.354;2022-09-12T15:36:57;2.78;;;1.50;;
27375;SDS011;14844;51.302;6.354;2022-09-12T15:39:22;2.83;;;1.50;;
27375;SDS011;14844;51.302;6.354;2022-09-12T15:41:48;2.45;;;1.50;;
27375;SDS011;14844;51.302;6.354;2022-09-12T15:44:13;2.25;;;1.20;;
27375;SDS011;14844;51.302;6.354;2022-09-12T15:46:39;8.00;;;1.33;;
27375;SDS011;14844;51.302;6.354;2022-09-12T15:49:05;4.43;;;1.30;;
27375;SDS011;14844;51.302;6.354;2022-09-12T15:51:31;4.63;;;1.33;;
27375;SDS011;14844;51.302;6.354;2022-09-12T15:53:57;4.25;;;1.20;;
27375;SDS011;14844;51.302;6.354;2022-09-12T15:56:24;4.22;;;1.40;;
27375;SDS011;14844;51.302;6.354;2022-09-12T15:58:49;5.55;;;1.40;;
27375;SDS011;14844;51.302;6.354;2022-09-12T16:01:15;3.88;;;1.23;;
27375;SDS011;14844;51.302;6.354;2022-09-12T16:03:42;4.95;;;1.40;;
27375;SDS011;14844;51.302;6.354;2022-09-12T16:06:15;4.80;;;1.35;;
27375;SDS011;14844;51.302;6.354;2022-09-12T16:08:43;6.65;;;1.25;;
27375;SDS011;14844;51.302;6.354;2022-09-12T16:11:14;1.88;;;1.10;;
27375;SDS011;14844;51.302;6.354;2022-09-12T16:13:42;3.10;;;1.15;;
27375;SDS011;14844;51.302;6.354;2022-09-12T16:16:08;4.85;;;1.20;;
27375;SDS011;14844;51.302;6.354;2022-09-12T16:18:33;2.22;;;1.05;;
27375;SDS011;14844;51.302;6.354;2022-09-12T16:20:59;5.55;;;1.15;;
27375;SDS011;14844;51.302;6.354;2022-09-12T16:23:24;2.95;;;1.23;;
27375;SDS011;14844;51.302;6.354;2022-09-12T16:26:00;2.03;;;1.20;;
27375;SDS011;14844;51.302;6.354;2022-09-12T16:28:27;2.42;;;1.20;;
27375;SDS011;14844;51.302;6.354;2022-09-12T16:30:53;2.58;;;1.40;;
27375;SDS011;14844;51.302;6.354;2022-09-12T16:33:23;2.63;;;1.60;;
27375;SDS011;14844;51.302;6.354;2022-09-12T16:35:49;2.80;;;1.70;;
27375;SDS011;14844;51.302;6.354;2022-09-12T16:38:18;5.25;;;1.85;;
27375;SDS011;14844;51.302;6.354;2022-09-12T16:40:47;3.10;;;1.77;;
27375;SDS011;14844;51.302;6.354;2022-09-12T16:43:13;4.10;;;1.30;;
27375;SDS011;14844;51.302;6.354;2022-09-12T16:45:41;3.28;;;1.60;;
27375;SDS011;14844;51.302;6.354;2022-09-12T16:48:07;2.55;;;1.38;;
27375;SDS011;14844;51.302;6.354;2022-09-12T16:50:33;7.55;;;1.80;;
27375;SDS011;14844;51.302;6.354;2022-09-12T16:52:59;2.83;;;1.77;;
27375;SDS011;14844;51.302;6.354;2022-09-12T16:55:24;2.92;;;1.60;;
27375;SDS011;14844;51.302;6.354;2022-09-12T16:57:52;3.47;;;1.50;;
27375;SDS011;14844;51.302;6.354;2022-09-12T17:00:18;6.20;;;1.80;;
27375;SDS011;14844;51.302;6.354;2022-09-12T17:02:43;2.88;;;1.50;;
27375;SDS011;14844;51.302;6.354;2022-09-12T17:05:09;3.25;;;1.63;;
27375;SDS011;14844;51.302;6.354;2022-09-12T17:07:34;4.03;;;1.75;;
27375;SDS011;14844;51.302;6.354;2022-09-12T17:10:00;4.47;;;1.77;;
27375;SDS011;14844;51.302;6.354;2022-09-12T17:12:25;2.17;;;1.45;;
27375;SDS011;14844;51.302;6.354;2022-09-12T17:14:51;7.25;;;1.90;;